EGQK

RAF Kinloss Airport

Kinloss, United Kingdom
METAR EGQK 152150Z AUTO 20007KT 9999 FEW036/// BKN045/// 15/09 Q1002
Observed Flight Rules
Aug-15 @ 21:50 UTC (37 minutes ago) Visual Flight Rules
Wind Visibility Clouds
200° at 7 knots 10,000+ meters
  • Few at 3,600' AGL
  • Broken at 4,500' AGL
Temperatures Readings
Current 15°C / 59°F
Dewpoint 9°C / 48°F
Humidity 68%
Altimeter 29.59" Hg
Pressure 1002 hPa
Elevation 7
METAR EGQK 152150Z AUTO 20007KT 9999 FEW036/// BKN045/// 15/09 Q1002
Observed Flight Rules
Aug-15 @ 21:50 UTC
(37 minutes ago)
VFR
Wind Visibility
200° at 7 knots 10,000+ meters
Clouds
  • Few at 3,600' AGL
  • Broken at 4,500' AGL
Temperature Dewpoint
15°C / 59°F 9°C / 48°F
Humidity Altimeter Pressure
68% 29.59" Hg 1002 hPa